Time;durP1;ratioP1;P1;durP2;ratioP2;P2;SDS_P1;SDS_P2;PMS_P1;PMS_P2;Temp;Humidity;BMP_temperature;BMP_pressure;BME280_temperature;BME280_humidity;BME280_pressure;Samples;Min_cycle;Max_cycle;Signal;HPM_P1;HPM_P2
2021/12/08 00:01:17;;;;;;;1.79;0.70;;;;;;;4.44;96.90;97540.22;2301175;66;20633;-75
2021/12/08 00:04:20;;;;;;;2.28;0.60;;;;;;;4.49;96.89;97522.22;2302843;69;20704;-75
2021/12/08 00:07:22;;;;;;;1.02;0.60;;;;;;;4.54;96.97;97523.00;2303110;69;20367;-75
2021/12/08 00:10:52;;;;;;;0.50;0.50;;;;;;;4.61;97.09;97516.06;2303247;69;20395;-77
2021/12/08 00:13:51;;;;;;;1.69;0.60;;;;;;;4.70;97.16;97532.25;2303838;69;20344;-75
2021/12/08 00:16:54;;;;;;;1.23;0.50;;;;;;;4.78;97.40;97537.31;2302431;66;21784;-75
2021/12/08 00:20:01;;;;;;;0.71;0.50;;;;;;;4.86;97.30;97532.94;2298581;69;20316;-76
2021/12/08 00:23:06;;;;;;;1.00;0.51;;;;;;;4.91;97.29;97527.72;2298659;69;20739;-76
2021/12/08 00:26:09;;;;;;;0.60;0.43;;;;;;;4.98;97.23;97527.63;2303048;69;20306;-76
2021/12/08 00:29:12;;;;;;;0.36;0.36;;;;;;;5.03;97.12;97528.44;2303039;69;20332;-75
2021/12/08 00:35:36;;;;;;;1.09;0.30;;;;;;;5.16;97.02;97534.25;2300153;69;20986;-76
2021/12/08 00:38:39;;;;;;;0.40;0.40;;;;;;;5.19;96.89;97531.66;2303515;69;20402;-76
2021/12/08 00:41:42;;;;;;;0.41;0.40;;;;;;;5.25;96.72;97535.88;2293809;69;20338;-76
2021/12/08 00:44:46;;;;;;;1.56;0.44;;;;;;;5.27;96.58;97532.41;2304137;69;20812;-76
2021/12/08 00:47:50;;;;;;;0.41;0.39;;;;;;;5.30;96.50;97534.94;2301565;66;20290;-76
2021/12/08 00:50:52;;;;;;;1.83;0.43;;;;;;;5.35;96.36;97540.00;2302354;69;20310;-75
2021/12/08 00:53:55;;;;;;;0.96;0.47;;;;;;;5.38;96.44;97535.66;2293889;69;20645;-75
2021/12/08 00:56:59;;;;;;;0.40;0.35;;;;;;;5.42;96.26;97531.34;2302095;69;20320;-76
2021/12/08 01:00:13;;;;;;;1.10;0.50;;;;;;;5.47;96.13;97537.28;2301781;69;20655;-75
2021/12/08 01:03:17;;;;;;;1.29;0.50;;;;;;;5.51;95.94;97532.94;2302567;67;29920;-76
2021/12/08 01:06:19;;;;;;;1.09;0.40;;;;;;;5.51;95.65;97527.78;2298718;69;20360;-76
2021/12/08 01:09:23;;;;;;;1.23;0.86;;;;;;;5.54;95.54;97531.16;2303184;69;20336;-76
2021/12/08 01:12:25;;;;;;;1.25;0.40;;;;;;;5.57;95.48;97527.72;2299926;69;21039;-76
2021/12/08 01:15:29;;;;;;;0.50;0.50;;;;;;;5.62;95.26;97525.91;2302793;67;22902;-76
2021/12/08 01:18:32;;;;;;;0.81;0.50;;;;;;;5.61;94.83;97525.06;2302715;69;20392;-76
2021/12/08 01:21:35;;;;;;;1.41;0.50;;;;;;;5.60;94.73;97514.78;2303916;69;20291;-76
2021/12/08 01:24:38;;;;;;;0.50;0.50;;;;;;;5.60;94.61;97519.94;2304729;69;20367;-76
2021/12/08 01:27:41;;;;;;;1.42;0.59;;;;;;;5.56;94.54;97520.84;2302775;69;20714;-76
2021/12/08 01:30:44;;;;;;;1.94;0.56;;;;;;;5.54;94.64;97518.28;2302628;66;22492;-76
2021/12/08 01:33:47;;;;;;;0.50;0.50;;;;;;;5.56;94.89;97521.69;2303970;69;20326;-76
2021/12/08 01:36:50;;;;;;;0.65;0.50;;;;;;;5.54;95.00;97520.88;2304904;69;20322;-76
2021/12/08 01:39:53;;;;;;;0.90;0.60;;;;;;;5.54;94.94;97527.75;2303945;69;20470;-76
2021/12/08 01:42:59;;;;;;;1.84;0.70;;;;;;;5.53;94.88;97518.31;2303453;69;20801;-76
2021/12/08 01:46:05;;;;;;;3.78;0.64;;;;;;;5.51;94.86;97528.63;2302389;66;26962;-76
2021/12/08 01:49:08;;;;;;;0.90;0.51;;;;;;;5.51;94.99;97513.19;2303884;69;20282;-76
2021/12/08 01:52:10;;;;;;;2.71;0.73;;;;;;;5.50;94.92;97514.06;2304118;69;21457;-75
2021/12/08 01:55:13;;;;;;;1.61;0.70;;;;;;;5.49;94.86;97525.25;2303372;69;20341;-76
2021/12/08 01:58:18;;;;;;;0.71;0.54;;;;;;;5.50;94.90;97538.97;2303644;69;20859;-76
2021/12/08 02:01:24;;;;;;;1.09;0.60;;;;;;;5.50;94.90;97541.53;2302001;66;21646;-76
2021/12/08 02:04:27;;;;;;;1.50;0.60;;;;;;;5.49;94.79;97538.09;2304588;69;21066;-76
2021/12/08 02:07:30;;;;;;;1.61;0.60;;;;;;;5.47;94.77;97535.56;2304109;69;20336;-76
2021/12/08 02:10:37;;;;;;;2.76;1.11;;;;;;;5.45;94.71;97550.19;2305760;69;20299;-76
2021/12/08 02:13:42;;;;;;;2.14;0.41;;;;;;;5.44;94.74;97548.47;2303569;69;20314;-76
2021/12/08 02:16:48;;;;;;;0.80;0.60;;;;;;;5.45;94.73;97550.19;2302172;69;20290;-76
2021/12/08 02:19:50;;;;;;;2.15;0.60;;;;;;;5.46;94.79;97559.59;2304388;69;20336;-76
2021/12/08 02:22:56;;;;;;;0.59;0.50;;;;;;;5.46;94.87;97557.03;2302708;69;20352;-77
2021/12/08 02:26:00;;;;;;;1.17;0.40;;;;;;;5.45;94.97;97551.91;2305189;69;20286;-76
2021/12/08 02:29:09;;;;;;;1.71;0.50;;;;;;;5.48;95.18;97551.84;2299154;69;20503;-75
2021/12/08 02:52:12;;;;;;;1.13;0.70;;;;;;;5.54;95.43;97558.63;2301229;69;20316;-76
2021/12/08 02:55:59;;;;;;;4.16;0.80;;;;;;;5.53;95.27;97565.50;2290307;69;20327;-76
2021/12/08 03:08:24;;;;;;;1.69;0.60;;;;;;;5.59;94.98;97537.13;2305736;69;20445;-76
2021/12/08 03:12:48;;;;;;;1.69;0.59;;;;;;;5.61;94.73;97540.50;2306308;69;20320;-76
2021/12/08 03:16:06;;;;;;;1.70;0.60;;;;;;;5.60;94.51;97545.69;2305109;69;20332;-76
2021/12/08 03:25:01;;;;;;;1.24;0.70;;;;;;;5.56;94.12;97534.56;2304493;69;20445;-76
2021/12/08 03:43:53;;;;;;;2.44;0.80;;;;;;;5.50;93.40;97542.38;2306892;69;20778;-77
2021/12/08 03:48:24;;;;;;;3.49;0.70;;;;;;;5.51;93.10;97544.09;2299644;67;50984;-77
2021/12/08 03:52:09;;;;;;;1.00;0.50;;;;;;;5.47;92.79;97538.13;2305158;69;20754;-77
2021/12/08 03:55:15;;;;;;;1.45;0.50;;;;;;;5.46;92.59;97536.44;2307254;69;20306;-77
2021/12/08 04:07:02;;;;;;;1.38;0.50;;;;;;;5.44;92.62;97551.06;2299282;69;20304;-77
2021/12/08 04:11:18;;;;;;;1.76;0.57;;;;;;;5.39;92.98;97562.28;2297043;69;20432;-77
2021/12/08 04:24:16;;;;;;;1.92;0.50;;;;;;;5.40;92.89;97564.00;2299202;69;20339;-78
2021/12/08 04:32:03;;;;;;;2.51;0.60;;;;;;;5.34;93.09;97572.63;2274931;67;52984;-77
2021/12/08 04:36:17;;;;;;;1.73;0.71;;;;;;;5.32;93.13;97571.78;2275450;70;20796;-77
2021/12/08 05:04:01;;;;;;;1.79;0.64;;;;;;;5.06;92.47;97587.56;2310314;69;20349;-76
2021/12/08 05:07:47;;;;;;;2.71;0.54;;;;;;;5.03;92.71;97586.75;2311339;69;20393;-76
2021/12/08 05:10:58;;;;;;;3.84;0.66;;;;;;;4.94;92.62;97595.41;2306804;69;20358;-76
2021/12/08 05:14:32;;;;;;;1.41;0.51;;;;;;;4.87;92.67;97592.94;2312255;69;20318;-77
2021/12/08 05:22:01;;;;;;;3.80;0.61;;;;;;;4.70;92.66;97595.66;2306487;69;21053;-76
2021/12/08 05:25:31;;;;;;;5.10;0.80;;;;;;;4.62;92.81;97602.59;2303582;69;20286;-76
2021/12/08 05:28:55;;;;;;;1.73;0.49;;;;;;;4.61;93.43;97591.47;2308064;69;20293;-76
2021/12/08 05:36:55;;;;;;;3.90;0.54;;;;;;;4.47;93.56;97580.44;2301385;69;20401;-77
2021/12/08 05:40:10;;;;;;;1.24;0.68;;;;;;;4.38;93.53;97590.84;2292669;69;20253;-77
2021/12/08 05:47:26;;;;;;;5.24;0.70;;;;;;;4.28;93.93;97589.19;1624703;67;52438479;-77
2021/12/08 05:51:18;;;;;;;1.60;0.60;;;;;;;4.20;94.25;97590.13;2294973;69;20510;-77
2021/12/08 05:55:09;;;;;;;1.13;0.81;;;;;;;4.20;94.69;97584.13;2287591;69;20404;-77
2021/12/08 06:02:37;;;;;;;2.11;0.88;;;;;;;4.30;95.79;97595.16;2297124;69;20737;-78
2021/12/08 06:31:22;;;;;;;6.70;1.26;;;;;;;4.25;95.89;97608.91;2300273;69;20149;-77
2021/12/08 06:38:55;;;;;;;4.22;2.08;;;;;;;4.28;95.99;97613.16;2299954;69;20339;-77
2021/12/08 06:59:16;;;;;;;4.22;0.81;;;;;;;4.30;96.38;97600.31;2294631;69;20295;-78
2021/12/08 07:15:21;;;;;;;4.51;0.96;;;;;;;4.40;96.77;97600.22;2302433;69;20310;-78
2021/12/08 08:15:26;;;;;;;5.53;1.33;;;;;;;4.64;95.09;97642.81;2276837;69;1002940;-77
2021/12/08 08:35:48;;;;;;;9.11;1.26;;;;;;;4.71;94.77;97661.63;2300980;69;20972;-78
2021/12/08 09:54:06;;;;;;;7.09;1.10;;;;;;;5.41;91.54;97691.78;2297608;69;20358;-78
2021/12/08 10:17:47;;;;;;;9.34;1.40;;;;;;;5.59;89.12;97686.44;2291508;69;20332;-77
2021/12/08 10:21:05;;;;;;;3.76;1.04;;;;;;;5.61;88.56;97702.72;2293238;69;20312;-78
2021/12/08 10:24:18;;;;;;;6.35;1.27;;;;;;;5.64;88.33;97707.81;2293620;69;20752;-78
2021/12/08 10:27:22;;;;;;;10.94;1.74;;;;;;;5.64;88.13;97715.53;2292043;69;21534;-76
2021/12/08 10:30:25;;;;;;;11.77;2.44;;;;;;;5.63;87.47;97718.97;2290844;67;24077;-77
2021/12/08 10:37:00;;;;;;;8.21;2.15;;;;;;;5.67;87.55;97702.63;2294689;69;20448;-77
2021/12/08 10:40:08;;;;;;;5.94;1.17;;;;;;;5.71;87.57;97700.84;2293966;69;20324;-77
2021/12/08 10:43:14;;;;;;;7.11;1.20;;;;;;;5.74;87.70;97693.97;2292277;69;20620;-78
2021/12/08 10:46:16;;;;;;;9.69;2.24;;;;;;;5.77;87.11;97687.94;2293668;67;22289;-78
2021/12/08 10:55:50;;;;;;;8.01;2.50;;;;;;;5.90;86.86;97680.91;2293377;69;20336;-78
2021/12/08 10:58:57;;;;;;;9.41;1.60;;;;;;;5.91;86.31;97686.03;2294589;69;20333;-77
2021/12/08 11:02:03;;;;;;;5.59;1.15;;;;;;;5.95;86.23;97692.00;2290461;67;22581;-78
2021/12/08 11:05:25;;;;;;;5.55;2.00;;;;;;;5.95;86.05;97698.03;2292419;69;20449;-77
2021/12/08 11:08:40;;;;;;;8.05;1.10;;;;;;;5.94;85.50;97700.63;2291918;69;20367;-77
2021/12/08 11:11:44;;;;;;;5.85;1.16;;;;;;;5.96;85.44;97702.28;2291587;69;20911;-77
2021/12/08 11:14:50;;;;;;;6.03;1.34;;;;;;;6.00;85.46;97701.38;2291163;69;20336;-79
2021/12/08 11:18:11;;;;;;;3.69;1.10;;;;;;;6.01;85.06;97708.22;2291750;66;32060;-77
2021/12/08 11:21:20;;;;;;;3.67;1.20;;;;;;;6.07;85.46;97715.88;2292596;69;20377;-77
2021/12/08 11:24:56;;;;;;;6.05;1.15;;;;;;;6.11;84.99;97711.53;2290788;69;20316;-77
2021/12/08 11:28:19;;;;;;;5.93;0.93;;;;;;;6.15;85.32;97715.78;2290527;69;20172;-77
2021/12/08 11:31:21;;;;;;;7.28;1.24;;;;;;;6.22;85.07;97716.53;2289695;67;22439;-77
2021/12/08 11:46:20;;;;;;;;;;;;;;;6.43;84.22;97703.31;2298807;66;52163;-79
2021/12/08 11:49:30;;;;;;;9.75;1.40;;;;;;;6.44;83.57;97702.44;2307503;69;20072;-79
2021/12/08 11:52:34;;;;;;;9.21;1.48;;;;;;;6.46;83.45;97705.00;2300821;69;21030;-79
2021/12/08 11:56:35;;;;;;;6.51;1.51;;;;;;;6.47;82.73;97720.47;2296974;69;20173;-77
2021/12/08 12:04:46;;;;;;;5.20;1.31;;;;;;;6.43;81.98;97723.94;2280590;70;20343;-77
2021/12/08 12:25:40;;;;;;;8.21;1.38;;;;;;;6.61;80.43;97697.03;2292887;69;20306;-78
2021/12/08 12:38:07;;;;;;;8.35;1.45;;;;;;;6.74;79.68;97685.66;2304409;69;20360;-79
2021/12/08 12:41:32;;;;;;;6.71;1.74;;;;;;;6.78;78.74;97682.13;2304732;69;20322;-78
2021/12/08 12:45:01;;;;;;;8.07;1.67;;;;;;;6.83;79.21;97674.34;2297688;69;20722;-78
2021/12/08 12:52:05;;;;;;;8.55;1.46;;;;;;;6.96;78.78;97668.06;2298288;69;20432;-81
2021/12/08 12:58:48;;;;;;;;;;;;;;;6.97;78.56;97668.03;2294921;69;20841;-77
2021/12/08 13:02:11;;;;;;;4.32;1.20;;;;;;;7.05;78.75;97665.34;2288898;67;31012;-77
2021/12/08 13:05:18;;;;;;;5.63;1.14;;;;;;;7.04;79.40;97673.97;2299085;69;20463;-77
2021/12/08 13:08:36;;;;;;;9.51;1.45;;;;;;;7.04;78.55;97675.69;2297002;69;20282;-75
2021/12/08 13:12:02;;;;;;;8.32;1.28;;;;;;;7.01;77.72;97676.59;2296347;69;20322;-77
2021/12/08 13:15:21;;;;;;;6.34;1.20;;;;;;;6.93;76.93;97675.88;2285797;69;20248;-75
2021/12/08 13:18:25;;;;;;;7.03;1.19;;;;;;;6.91;77.15;97673.31;2290237;69;20326;-75
2021/12/08 13:21:38;;;;;;;6.76;1.25;;;;;;;6.88;76.86;97669.94;2300087;69;20283;-75
2021/12/08 13:24:42;;;;;;;8.10;1.40;;;;;;;6.83;76.83;97667.44;2299791;69;20294;-77
2021/12/08 13:27:53;;;;;;;7.28;0.95;;;;;;;6.75;76.89;97671.88;2302032;69;20274;-78
2021/12/08 13:31:10;;;;;;;5.25;1.02;;;;;;;6.70;77.17;97671.09;2300782;69;20302;-77
2021/12/08 13:34:32;;;;;;;6.80;1.00;;;;;;;6.69;77.45;97678.88;2291694;69;20416;-75
2021/12/08 13:37:54;;;;;;;7.93;1.00;;;;;;;6.68;77.61;97675.44;2302085;69;20387;-75
2021/12/08 13:40:58;;;;;;;7.54;0.90;;;;;;;6.66;78.26;97674.63;2301098;69;20752;-75
2021/12/08 13:48:18;;;;;;;7.56;1.42;;;;;;;6.64;77.21;97677.22;2300395;69;20317;-75
2021/12/08 13:51:21;;;;;;;5.76;0.99;;;;;;;6.58;76.89;97671.31;2297100;69;20325;-75
2021/12/08 13:54:24;;;;;;;6.20;1.45;;;;;;;6.51;76.66;97670.56;2301465;69;20310;-75
2021/12/08 13:57:52;;;;;;;8.60;1.30;;;;;;;6.49;77.00;97679.19;2301323;69;20366;-75
2021/12/08 14:01:09;;;;;;;6.61;0.84;;;;;;;6.48;77.40;97680.06;2297084;66;73944;-75
2021/12/08 14:04:28;;;;;;;6.64;1.10;;;;;;;6.48;78.11;97686.09;2301268;69;20338;-75
2021/12/08 14:07:32;;;;;;;7.36;1.31;;;;;;;6.50;78.28;97678.31;2303391;69;20308;-76
2021/12/08 14:10:51;;;;;;;10.34;1.10;;;;;;;6.50;78.69;97686.06;2301804;69;20415;-75
2021/12/08 14:13:54;;;;;;;6.78;1.08;;;;;;;6.49;78.54;97694.66;2301797;69;20322;-75
2021/12/08 14:16:56;;;;;;;6.51;1.58;;;;;;;6.43;77.79;97693.00;2300471;69;20177;-75
2021/12/08 14:20:32;;;;;;;9.27;1.29;;;;;;;6.36;77.47;97696.56;2304263;69;20338;-79
2021/12/08 14:24:31;;;;;;;4.15;1.06;;;;;;;6.37;78.14;97703.44;2284879;69;20299;-75
2021/12/08 14:28:28;;;;;;;5.64;1.00;;;;;;;6.36;78.99;97701.72;2301905;69;21160;-76
2021/12/08 14:31:34;;;;;;;11.00;2.76;;;;;;;6.34;79.84;97696.59;2290863;69;20303;-76
2021/12/08 14:34:39;;;;;;;7.64;1.10;;;;;;;6.28;79.73;97694.13;2302164;69;20739;-75
2021/12/08 14:37:43;;;;;;;6.79;1.27;;;;;;;6.24;80.23;97692.44;2302686;69;20412;-75
2021/12/08 14:40:46;;;;;;;9.70;1.01;;;;;;;6.18;80.46;97700.28;2302601;69;20382;-75
2021/12/08 14:44:01;;;;;;;6.55;0.90;;;;;;;6.12;79.98;97700.38;2302426;69;20488;-75
2021/12/08 14:47:42;;;;;;;3.74;0.84;;;;;;;6.05;80.19;97685.84;2298878;66;63425;-76
2021/12/08 14:55:03;;;;;;;8.09;1.60;;;;;;;5.89;81.08;97687.75;2301467;69;20334;-75
2021/12/08 14:58:57;;;;;;;3.81;0.79;;;;;;;5.81;81.90;97696.47;2301730;69;21040;-76
2021/12/08 15:10:41;;;;;;;4.79;0.86;;;;;;;5.42;82.96;97696.91;2296321;69;20857;-75
2021/12/08 15:14:19;;;;;;;7.39;0.94;;;;;;;5.32;83.49;97691.88;2301209;69;21358;-76
2021/12/08 15:17:30;;;;;;;2.88;0.70;;;;;;;5.23;83.73;97687.69;2298552;67;68203;-75
2021/12/08 15:20:44;;;;;;;4.40;1.50;;;;;;;5.11;84.31;97688.66;2301929;69;20359;-76
2021/12/08 15:24:17;;;;;;;8.69;0.84;;;;;;;4.98;84.96;97688.78;2299371;69;20321;-76
2021/12/08 15:32:13;;;;;;;4.44;0.82;;;;;;;4.77;85.89;97707.84;2272468;69;2237465;-76
2021/12/08 15:50:28;;;;;;;6.31;0.85;;;;;;;4.19;87.44;97729.69;2303689;69;20412;-74
2021/12/08 16:00:58;;;;;;;4.81;0.84;;;;;;;3.98;88.85;97734.94;2299565;66;51214;-77
2021/12/08 16:07:29;;;;;;;3.03;0.64;;;;;;;3.84;89.26;97741.84;2303507;69;20361;-78
2021/12/08 16:11:26;;;;;;;9.24;0.77;;;;;;;3.76;89.52;97741.03;2301941;69;20304;-77
2021/12/08 16:32:43;;;;;;;4.35;0.70;;;;;;;3.64;91.92;97767.59;2300130;69;20298;-77
2021/12/08 17:02:22;;;;;;;4.07;1.08;;;;;;;3.00;91.92;97790.78;2301486;69;20314;-76
2021/12/08 17:36:07;;;;;;;2.11;1.00;;;;;;;2.39;92.52;97809.53;2303217;69;20326;-78
2021/12/08 17:53:07;;;;;;;7.84;1.99;;;;;;;2.17;92.59;97828.25;2300720;69;20460;-76
2021/12/08 17:57:13;;;;;;;7.72;3.54;;;;;;;2.07;92.21;97829.06;2302560;69;20931;-76
2021/12/08 18:09:50;;;;;;;13.46;4.20;;;;;;;2.00;92.78;97843.53;2303267;69;20203;-76
2021/12/08 18:12:53;;;;;;;7.40;3.10;;;;;;;1.96;92.96;97840.94;2305215;69;21208;-77
2021/12/08 18:15:57;;;;;;;8.32;2.97;;;;;;;1.92;93.08;97845.19;2299506;67;21442;-76
2021/12/08 18:19:01;;;;;;;15.29;3.01;;;;;;;1.89;93.06;97855.41;2305120;69;20325;-77
2021/12/08 18:22:05;;;;;;;9.98;3.70;;;;;;;1.82;93.11;97861.38;2305947;69;20404;-76
2021/12/08 18:25:09;;;;;;;7.06;2.36;;;;;;;1.81;93.33;97863.06;2305183;69;20294;-77
2021/12/08 18:28:14;;;;;;;8.54;2.34;;;;;;;1.77;93.19;97861.31;2300479;69;20303;-77
2021/12/08 18:31:17;;;;;;;7.25;2.17;;;;;;;1.72;93.33;97851.91;2302882;66;23155;-77
2021/12/08 18:34:20;;;;;;;8.68;2.10;;;;;;;1.67;93.29;97867.25;2306255;69;20422;-76
2021/12/08 18:37:28;;;;;;;7.30;1.92;;;;;;;1.66;93.83;97862.97;2306006;69;20466;-77
2021/12/08 18:40:35;;;;;;;7.07;2.01;;;;;;;1.66;93.86;97875.75;2304902;69;20310;-77
2021/12/08 18:43:41;;;;;;;6.64;1.84;;;;;;;1.64;93.90;97867.22;2306211;69;20319;-77
2021/12/08 18:46:46;;;;;;;8.49;2.28;;;;;;;1.59;93.83;97875.69;2304770;66;23351;-77
2021/12/08 18:49:50;;;;;;;6.15;2.29;;;;;;;1.52;93.71;97878.22;2305737;69;20972;-77
2021/12/08 18:52:54;;;;;;;7.61;1.91;;;;;;;1.52;93.76;97878.22;2305140;69;20329;-77
2021/12/08 18:55:57;;;;;;;5.89;1.79;;;;;;;1.50;93.73;97887.59;2305025;69;20444;-77
2021/12/08 18:59:04;;;;;;;6.13;1.79;;;;;;;1.47;93.69;97895.25;2303924;69;20464;-77
2021/12/08 19:02:07;;;;;;;6.74;1.66;;;;;;;1.41;93.47;97894.31;2304004;66;20821;-77
2021/12/08 19:05:14;;;;;;;6.31;1.49;;;;;;;1.39;93.67;97896.03;2305889;69;20318;-77
2021/12/08 19:08:22;;;;;;;4.19;1.71;;;;;;;1.38;93.93;97891.75;2305742;69;20328;-79
2021/12/08 19:11:27;;;;;;;4.99;1.60;;;;;;;1.37;94.00;97892.59;2305207;69;20346;-77
2021/12/08 19:14:30;;;;;;;6.39;1.81;;;;;;;1.33;94.00;97901.94;2305579;69;20344;-77
2021/12/08 19:17:40;;;;;;;4.68;1.77;;;;;;;1.29;93.98;97904.47;2302775;66;20403;-77
2021/12/08 19:20:46;;;;;;;8.82;1.63;;;;;;;1.25;94.08;97911.25;2304716;69;20318;-77
2021/12/08 19:23:49;;;;;;;9.18;2.04;;;;;;;1.18;93.89;97909.50;2305638;69;20309;-77
2021/12/08 19:26:53;;;;;;;3.85;1.67;;;;;;;1.14;93.99;97917.97;2305407;69;20421;-77
2021/12/08 19:29:56;;;;;;;7.97;2.40;;;;;;;1.12;94.22;97929.91;2307002;69;20351;-77
2021/12/08 19:33:08;;;;;;;9.46;2.91;;;;;;;1.09;94.30;97925.63;2300519;67;23993;-79
2021/12/08 19:36:11;;;;;;;8.00;2.56;;;;;;;1.08;94.38;97933.28;2307310;69;20322;-78
2021/12/08 19:39:16;;;;;;;7.94;2.70;;;;;;;1.09;94.60;97932.44;2306068;69;20356;-77
2021/12/08 19:42:20;;;;;;;11.43;4.46;;;;;;;1.08;94.67;97938.38;2305767;69;20339;-77
2021/12/08 19:45:27;;;;;;;10.24;4.95;;;;;;;1.07;94.78;97929.81;2304140;66;22678;-76
2021/12/08 19:48:30;;;;;;;9.96;4.85;;;;;;;1.09;94.89;97935.84;2305227;69;20319;-77
2021/12/08 19:51:43;;;;;;;11.09;5.54;;;;;;;1.13;95.10;97934.16;2302297;69;20550;-77
2021/12/08 19:54:50;;;;;;;8.35;4.75;;;;;;;1.17;95.16;97938.44;2308451;69;20399;-77
2021/12/08 19:57:54;;;;;;;10.68;5.19;;;;;;;1.19;95.14;97945.28;2306748;69;20302;-76
2021/12/08 20:00:58;;;;;;;11.11;5.45;;;;;;;1.24;95.41;97932.53;2305729;66;21029;-77
2021/12/08 20:04:06;;;;;;;10.29;4.74;;;;;;;1.28;95.42;97954.75;2306316;69;20351;-77
2021/12/08 20:07:09;;;;;;;10.24;4.49;;;;;;;1.31;95.52;97948.81;2305825;69;20316;-77
2021/12/08 20:10:15;;;;;;;11.34;4.99;;;;;;;1.35;95.67;97951.41;2302372;69;20696;-76
2021/12/08 20:13:21;;;;;;;10.27;4.88;;;;;;;1.39;95.67;97942.91;2304913;69;20310;-76
2021/12/08 20:16:26;;;;;;;9.26;4.72;;;;;;;1.44;95.77;97953.19;2300059;67;20298;-76
2021/12/08 20:19:29;;;;;;;8.27;3.95;;;;;;;1.50;95.96;97953.22;2301061;69;20313;-76
2021/12/08 20:22:34;;;;;;;8.15;4.64;;;;;;;1.54;95.83;97957.53;2301192;69;20290;-76
2021/12/08 20:25:39;;;;;;;8.15;4.19;;;;;;;1.55;95.70;97946.44;2304772;69;20332;-77
2021/12/08 20:28:44;;;;;;;9.31;4.16;;;;;;;1.55;95.66;97956.69;2300701;69;20362;-77
2021/12/08 20:31:49;;;;;;;6.72;3.06;;;;;;;1.57;95.74;97956.69;2298215;66;44221;-77
2021/12/08 20:34:54;;;;;;;12.63;3.19;;;;;;;1.57;95.77;97962.66;2304991;69;20331;-78
2021/12/08 20:38:01;;;;;;;6.99;2.80;;;;;;;1.61;95.99;97969.50;2308377;69;20323;-76
2021/12/08 20:41:09;;;;;;;8.06;3.14;;;;;;;1.65;95.92;97980.66;2305209;69;20324;-76
2021/12/08 20:44:19;;;;;;;5.96;3.11;;;;;;;1.62;95.83;97976.38;2304339;69;20356;-77
2021/12/08 20:47:30;;;;;;;7.43;3.20;;;;;;;1.65;95.94;97981.50;2302977;66;23757;-76
2021/12/08 20:50:35;;;;;;;6.43;2.95;;;;;;;1.68;96.00;97986.63;2303999;69;20387;-76
2021/12/08 20:53:42;;;;;;;6.05;2.42;;;;;;;1.70;95.99;97990.06;2305086;69;20779;-76
2021/12/08 20:56:49;;;;;;;5.46;3.15;;;;;;;1.70;95.89;97992.63;2305612;69;20500;-76
2021/12/08 20:59:56;;;;;;;7.71;2.85;;;;;;;1.73;96.00;98002.88;2303791;69;20287;-76
2021/12/08 21:03:03;;;;;;;7.28;2.88;;;;;;;1.75;96.04;97996.06;2302387;66;22035;-76
2021/12/08 21:06:06;;;;;;;4.72;2.69;;;;;;;1.77;95.97;98002.03;2304939;69;21124;-76
2021/12/08 21:09:10;;;;;;;7.13;2.61;;;;;;;1.82;96.06;98002.09;2299196;69;20324;-76
2021/12/08 21:12:17;;;;;;;5.56;2.61;;;;;;;1.86;95.96;98006.38;2305051;69;20336;-76
2021/12/08 21:15:21;;;;;;;5.76;2.86;;;;;;;1.89;96.01;98008.09;2303993;69;22137;-76
2021/12/08 21:18:24;;;;;;;9.19;2.91;;;;;;;1.94;96.02;98007.28;2306993;69;20444;-76
2021/12/08 21:21:32;;;;;;;7.97;3.67;;;;;;;1.94;95.83;98002.16;2306386;69;20295;-76
2021/12/08 21:24:38;;;;;;;8.82;3.01;;;;;;;1.91;95.58;98009.84;2308275;69;20326;-78
2021/12/08 21:27:43;;;;;;;8.48;3.86;;;;;;;1.91;95.82;98002.16;2305762;69;20410;-76
2021/12/08 21:30:48;;;;;;;8.80;3.24;;;;;;;1.90;95.74;98009.81;2304052;67;23785;-76
2021/12/08 21:33:56;;;;;;;9.06;3.94;;;;;;;1.86;95.48;98005.53;2307058;69;20298;-76
2021/12/08 21:37:00;;;;;;;11.24;4.07;;;;;;;1.83;95.71;98013.19;2305885;69;20294;-76
2021/12/08 21:40:04;;;;;;;10.51;3.54;;;;;;;1.80;95.65;98014.88;2303745;69;20306;-76
2021/12/08 21:43:09;;;;;;;9.06;2.95;;;;;;;1.77;95.69;98012.28;2304128;69;20312;-76
2021/12/08 21:46:12;;;;;;;6.80;3.16;;;;;;;1.78;95.85;98013.13;2297561;67;20337;-76
2021/12/08 21:49:16;;;;;;;5.30;3.16;;;;;;;1.74;95.75;98017.38;2305655;69;20317;-77
2021/12/08 21:52:19;;;;;;;9.34;3.00;;;;;;;1.72;95.69;98023.31;2305727;69;20743;-77
2021/12/08 21:55:22;;;;;;;7.39;2.53;;;;;;;1.66;95.60;98021.59;2306688;69;20306;-76
2021/12/08 21:58:25;;;;;;;5.53;2.79;;;;;;;1.64;95.50;98024.97;2304108;69;20444;-76
2021/12/08 22:01:29;;;;;;;7.47;3.00;;;;;;;1.59;95.42;98029.16;2301582;67;21698;-76
2021/12/08 22:04:32;;;;;;;11.06;3.70;;;;;;;1.54;95.16;98026.56;2304399;69;20318;-76
2021/12/08 22:07:35;;;;;;;8.99;3.53;;;;;;;1.43;94.99;98029.03;2307846;69;20466;-76
2021/12/08 22:10:38;;;;;;;10.14;4.28;;;;;;;1.38;94.97;98029.81;2303061;69;20338;-76
2021/12/08 22:13:41;;;;;;;8.11;2.92;;;;;;;1.31;94.88;98038.28;2304002;69;20309;-76
2021/12/08 22:16:45;;;;;;;8.11;2.79;;;;;;;1.25;94.82;98046.72;2301544;66;20901;-76
2021/12/08 22:19:50;;;;;;;6.75;2.63;;;;;;;1.16;94.57;98050.06;2300277;69;20352;-76
2021/12/08 22:22:54;;;;;;;6.16;2.44;;;;;;;1.10;94.65;98062.78;2304458;69;20303;-76
2021/12/08 22:25:58;;;;;;;8.56;2.58;;;;;;;1.06;94.70;98063.56;2304768;69;21687;-76
2021/12/08 22:29:01;;;;;;;7.53;3.61;;;;;;;1.05;94.80;98076.34;2305057;69;20337;-76
2021/12/08 22:32:04;;;;;;;10.49;3.44;;;;;;;0.99;94.66;98066.03;2306726;67;23577;-76
2021/12/08 22:35:07;;;;;;;7.94;3.20;;;;;;;0.94;94.74;98067.69;2306872;69;20533;-76
2021/12/08 22:38:10;;;;;;;6.68;3.30;;;;;;;0.89;94.82;98067.63;2306103;69;20341;-76
2021/12/08 22:41:13;;;;;;;7.28;4.10;;;;;;;0.88;94.95;98069.31;2305232;69;20330;-76
2021/12/08 22:44:17;;;;;;;6.56;3.29;;;;;;;0.84;94.92;98076.94;2303883;69;20344;-76
2021/12/08 22:47:19;;;;;;;7.68;3.03;;;;;;;0.80;94.76;98081.16;2303320;67;23544;-76
2021/12/08 22:50:27;;;;;;;5.64;2.90;;;;;;;0.77;94.78;98086.22;2305703;69;20304;-76
2021/12/08 22:53:29;;;;;;;8.77;3.40;;;;;;;0.73;94.83;98081.06;2305694;69;20310;-76
2021/12/08 22:56:33;;;;;;;7.30;3.08;;;;;;;0.65;94.72;98085.19;2305255;69;20294;-76
2021/12/08 22:59:36;;;;;;;7.22;2.08;;;;;;;0.55;94.51;98089.34;2304412;69;20367;-76
2021/12/08 23:02:39;;;;;;;6.07;1.67;;;;;;;0.49;94.69;98090.09;2302687;66;25703;-76
2021/12/08 23:05:43;;;;;;;4.50;1.29;;;;;;;0.43;94.65;98091.69;2303939;69;20336;-76
2021/12/08 23:08:46;;;;;;;3.59;1.19;;;;;;;0.36;94.63;98092.44;2305420;69;20294;-76
2021/12/08 23:11:49;;;;;;;3.60;1.10;;;;;;;0.30;94.67;98093.22;2304569;69;20172;-75
2021/12/08 23:14:52;;;;;;;5.92;1.17;;;;;;;0.25;94.70;98095.69;2306983;69;20169;-76
2021/12/08 23:17:55;;;;;;;4.57;0.94;;;;;;;0.19;94.65;98095.63;2299587;67;22143;-77
2021/12/08 23:21:00;;;;;;;1.99;1.00;;;;;;;0.17;94.79;98102.34;2306676;69;20820;-77
2021/12/08 23:24:05;;;;;;;3.16;1.11;;;;;;;0.17;95.03;98102.34;2307232;69;20273;-77
2021/12/08 23:27:09;;;;;;;2.79;1.00;;;;;;;0.16;95.04;98100.66;2305790;69;20330;-77
2021/12/08 23:30:12;;;;;;;3.81;1.10;;;;;;;0.16;95.01;98099.78;2305974;69;20161;-77
2021/12/08 23:33:16;;;;;;;2.30;0.94;;;;;;;0.12;95.05;98098.88;2308236;69;38407;-77
2021/12/08 23:36:22;;;;;;;3.28;1.13;;;;;;;0.09;95.12;98100.53;2307737;69;20294;-77
2021/12/08 23:39:27;;;;;;;3.69;1.12;;;;;;;0.06;95.21;98101.34;2307415;69;20762;-77
2021/12/08 23:42:29;;;;;;;2.10;1.23;;;;;;;0.07;95.40;98102.22;2308226;69;20583;-77
2021/12/08 23:45:34;;;;;;;3.44;1.66;;;;;;;0.12;95.52;98103.13;2304516;67;21657;-77
2021/12/08 23:48:38;;;;;;;5.00;1.29;;;;;;;0.16;95.94;98105.75;2305708;69;21727;-77
2021/12/08 23:51:42;;;;;;;7.04;1.66;;;;;;;0.23;95.99;98122.03;2306163;69;20298;-76
2021/12/08 23:54:45;;;;;;;3.80;1.94;;;;;;;0.26;96.12;98110.19;2306811;69;21030;-77
2021/12/08 23:57:50;;;;;;;5.57;2.33;;;;;;;0.32;96.28;98106.84;2305669;69;20339;-76
